createdAt,value
2019-05-01T00:02:33.863Z,89.79
2019-05-01T00:05:15.469Z,89.59
2019-05-01T00:07:48.809Z,89.20
2019-05-01T00:10:23.042Z,89.22
2019-05-01T00:12:55.967Z,89.45
2019-05-01T00:15:31.436Z,89.30
2019-05-01T00:18:03.713Z,89.18
2019-05-01T00:20:37.708Z,89.04
2019-05-01T00:23:10.272Z,89.20
2019-05-01T00:25:42.341Z,89.37
2019-05-01T00:28:17.040Z,89.72
2019-05-01T00:31:00.265Z,90.82
2019-05-01T00:33:32.567Z,91.98
2019-05-01T00:36:06.179Z,92.59
2019-05-01T00:38:38.324Z,93.02
2019-05-01T00:41:10.413Z,93.39
2019-05-01T00:43:42.595Z,93.62
2019-05-01T00:46:14.845Z,93.76
2019-05-01T00:48:46.956Z,93.77
2019-05-01T00:51:18.986Z,93.98
2019-05-01T00:53:56.308Z,94.01
2019-05-01T00:56:49.086Z,94.07
2019-05-01T00:59:38.529Z,93.94
2019-05-01T01:02:16.761Z,94.40
2019-05-01T01:04:50.382Z,94.67
2019-05-01T01:07:23.585Z,94.91
2019-05-01T01:09:55.571Z,94.89
2019-05-01T01:15:18.770Z,94.14
2019-05-01T01:17:53.852Z,94.71
2019-05-01T01:20:26.018Z,95.07
2019-05-01T01:22:59.342Z,95.17
2019-05-01T01:25:32.736Z,95.11
2019-05-01T01:28:04.993Z,95.29
2019-05-01T01:30:37.432Z,95.21
2019-05-01T01:33:09.705Z,95.38
2019-05-01T01:35:43.442Z,95.32
2019-05-01T01:38:15.612Z,95.22
2019-05-01T01:40:47.714Z,95.20
2019-05-01T01:43:41.589Z,95.13
2019-05-01T01:46:15.765Z,95.18
2019-05-01T01:48:48.201Z,95.08
2019-05-01T01:51:21.524Z,95.11
2019-05-01T01:53:54.658Z,94.80
2019-05-01T01:56:26.840Z,94.55
2019-05-01T01:58:59.470Z,94.34
2019-05-01T02:01:49.315Z,94.35
2019-05-01T02:04:38.077Z,94.59
2019-05-01T02:07:10.172Z,94.91
2019-05-01T02:09:42.385Z,95.33
2019-05-01T02:12:15.756Z,95.46
2019-05-01T02:14:47.980Z,95.60
2019-05-01T02:17:20.168Z,95.68
2019-05-01T02:19:52.385Z,95.83
2019-05-01T02:22:24.601Z,96.13
2019-05-01T02:24:56.567Z,96.76
2019-05-01T02:27:39.375Z,97.57
2019-05-01T02:30:13.200Z,98.30
2019-05-01T02:32:46.766Z,98.74
2019-05-01T02:35:20.039Z,98.86
2019-05-01T02:37:54.009Z,98.83
2019-05-01T02:40:45.758Z,98.61
2019-05-01T02:43:20.848Z,98.46
2019-05-01T02:46:00.412Z,98.18
2019-05-01T02:48:38.392Z,98.03
2019-05-01T02:51:11.037Z,97.83
2019-05-01T02:53:46.618Z,97.60
2019-05-01T02:56:26.670Z,97.37
2019-05-01T02:59:01.359Z,97.19
2019-05-01T03:01:46.362Z,97.01
2019-05-01T03:04:11.142Z,96.87
2019-05-01T03:06:45.101Z,97.03
2019-05-01T03:09:19.598Z,97.32
2019-05-01T03:11:54.952Z,97.30
2019-05-01T03:14:30.939Z,97.20
2019-05-01T03:17:07.154Z,97.44
2019-05-01T03:20:08.824Z,97.69
2019-05-01T03:23:09.280Z,97.74
2019-05-01T03:25:41.491Z,97.96
2019-05-01T03:28:15.019Z,98.16
2019-05-01T03:30:47.382Z,98.23
2019-05-01T03:33:19.734Z,98.44
2019-05-01T03:35:51.965Z,98.70
2019-05-01T03:38:24.600Z,99.08
2019-05-01T03:40:59.481Z,99.18
2019-05-01T03:43:32.367Z,99.09
2019-05-01T03:46:04.739Z,99.06
2019-05-01T03:48:36.900Z,98.95
2019-05-01T03:51:09.131Z,98.82
2019-05-01T03:53:43.907Z,98.64
2019-05-01T03:56:16.293Z,98.55
2019-05-01T03:58:48.396Z,98.53
2019-05-01T04:01:42.541Z,98.32
2019-05-01T04:04:17.146Z,98.20
2019-05-01T04:06:50.327Z,98.06
2019-05-01T04:09:24.324Z,98.36
2019-05-01T04:11:56.784Z,98.57
2019-05-01T04:14:32.383Z,98.96
2019-05-01T04:17:13.485Z,99.36
2019-05-01T04:19:47.373Z,99.57
2019-05-01T04:22:19.495Z,99.73
2019-05-01T04:24:54.220Z,99.80
2019-05-01T04:27:31.743Z,99.69
2019-05-01T04:30:22.036Z,99.51
2019-05-01T04:32:57.938Z,99.85
2019-05-01T04:35:50.085Z,100.00
2019-05-01T04:38:22.475Z,99.89
2019-05-01T04:40:59.032Z,99.45
2019-05-01T04:43:31.019Z,98.75
2019-05-01T04:46:03.984Z,98.14
2019-05-01T04:48:36.352Z,97.57
2019-05-01T04:51:08.557Z,97.28
2019-05-01T04:53:40.695Z,97.09
2019-05-01T04:56:12.980Z,96.92
2019-05-01T04:58:44.964Z,96.83
2019-05-01T05:01:17.011Z,97.24
2019-05-01T05:03:49.199Z,97.60
2019-05-01T05:06:21.437Z,97.81
2019-05-01T05:08:55.252Z,97.97
2019-05-01T05:11:29.119Z,98.27
2019-05-01T05:14:15.447Z,98.29
2019-05-01T05:16:55.912Z,98.41
2019-05-01T05:19:28.364Z,98.75
2019-05-01T05:22:01.483Z,99.00
2019-05-01T05:24:36.232Z,99.27
2019-05-01T05:27:09.465Z,99.48
2019-05-01T05:29:41.936Z,99.58
2019-05-01T05:32:16.102Z,99.46
2019-05-01T05:34:50.576Z,99.40
2019-05-01T05:37:33.085Z,99.21
2019-05-01T05:40:05.996Z,98.89
2019-05-01T05:42:39.087Z,98.35
2019-05-01T05:45:11.799Z,97.85
2019-05-01T05:47:44.131Z,97.08
2019-05-01T05:50:18.074Z,96.34
2019-05-01T05:52:57.070Z,95.87
2019-05-01T05:55:35.551Z,95.09
2019-05-01T05:58:25.037Z,94.33
2019-05-01T06:01:21.784Z,93.63
2019-05-01T06:04:21.517Z,92.75
2019-05-01T06:07:25.664Z,91.94
2019-05-01T06:10:23.167Z,91.10
2019-05-01T06:13:31.747Z,89.95
2019-05-01T06:16:16.187Z,88.59
2019-05-01T06:19:00.545Z,86.63
2019-05-01T06:21:39.215Z,85.16
2019-05-01T06:24:17.741Z,83.57
2019-05-01T06:26:49.921Z,82.74
2019-05-01T06:29:31.119Z,83.51
2019-05-01T06:32:01.412Z,83.63
2019-05-01T06:34:35.616Z,83.60
2019-05-01T06:37:07.819Z,83.46
2019-05-01T06:39:43.000Z,83.49
2019-05-01T06:42:15.094Z,83.65
2019-05-01T06:45:01.195Z,83.96
2019-05-01T06:48:04.645Z,82.44
2019-05-01T06:50:43.206Z,72.95
2019-05-01T06:53:15.335Z,59.77
2019-05-01T06:55:47.514Z,52.85
2019-05-01T06:58:20.543Z,49.35
2019-05-01T07:00:54.149Z,44.32
2019-05-01T07:03:26.342Z,41.60
2019-05-01T07:06:00.350Z,39.03
2019-05-01T07:08:34.166Z,37.07
2019-05-01T07:11:06.519Z,35.43
2019-05-01T07:13:51.686Z,33.57
2019-05-01T07:16:23.758Z,32.73
2019-05-01T07:19:05.788Z,33.40
2019-05-01T07:21:32.897Z,31.48
2019-05-01T07:24:06.441Z,32.23
2019-05-01T07:26:38.841Z,30.83
2019-05-01T07:29:14.321Z,31.64
2019-05-01T07:31:46.511Z,31.35
2019-05-01T07:34:21.776Z,31.09
2019-05-01T07:36:52.445Z,30.03
2019-05-01T07:39:25.416Z,28.85
2019-05-01T07:42:26.899Z,28.78
2019-05-01T07:45:14.606Z,28.90
2019-05-01T07:47:47.620Z,27.89
2019-05-01T07:50:24.325Z,26.79
2019-05-01T07:52:56.705Z,26.70
2019-05-01T07:55:38.180Z,26.87
2019-05-01T07:58:16.053Z,25.28
2019-05-01T08:01:06.418Z,24.80
2019-05-01T08:03:42.660Z,23.64
2019-05-01T08:06:16.385Z,23.53
2019-05-01T08:08:47.889Z,24.16
2019-05-01T08:11:20.020Z,23.31
2019-05-01T08:13:51.995Z,22.71
2019-05-01T08:16:49.368Z,23.18
2019-05-01T08:19:41.769Z,22.80
2019-05-01T08:22:32.152Z,21.78
2019-05-01T08:25:16.627Z,21.12
2019-05-01T08:31:08.599Z,19.76
2019-05-01T08:34:02.838Z,18.88
2019-05-01T08:36:42.598Z,17.86
2019-05-01T08:39:15.354Z,17.87
2019-05-01T08:41:47.349Z,17.87
2019-05-01T08:44:24.796Z,17.90
2019-05-01T08:47:01.227Z,18.90
2019-05-01T08:49:41.743Z,18.65
2019-05-01T08:52:20.167Z,17.79
2019-05-01T08:54:56.297Z,17.78
2019-05-01T08:57:34.136Z,17.69
2019-05-01T09:00:04.972Z,16.86
2019-05-01T09:02:41.683Z,16.86
2019-05-01T09:05:27.777Z,16.96
2019-05-01T09:07:46.821Z,16.53
2019-05-01T09:10:21.530Z,16.61
2019-05-01T09:12:53.667Z,16.15
2019-05-01T09:15:25.742Z,17.29
2019-05-01T09:17:57.780Z,17.33
2019-05-01T09:20:31.362Z,17.18
2019-05-01T09:23:03.766Z,17.10
2019-05-01T09:25:42.271Z,17.25
2019-05-01T09:28:20.641Z,16.60
2019-05-01T09:31:02.288Z,16.70
2019-05-01T09:33:33.766Z,16.66
2019-05-01T09:36:06.036Z,16.19
2019-05-01T09:38:38.146Z,15.87
2019-05-01T09:41:10.207Z,16.31
2019-05-01T09:43:42.345Z,16.37
2019-05-01T09:46:14.540Z,16.78
2019-05-01T09:48:47.404Z,16.38
2019-05-01T09:51:29.871Z,16.74
2019-05-01T09:54:25.056Z,16.94
2019-05-01T09:56:57.152Z,16.24
2019-05-01T09:59:29.103Z,16.23
2019-05-01T10:02:07.707Z,16.77
2019-05-01T10:04:36.846Z,16.54
2019-05-01T10:07:09.219Z,18.36
2019-05-01T10:09:41.226Z,17.45
2019-05-01T10:12:13.216Z,17.46
2019-05-01T10:14:45.442Z,18.42
2019-05-01T10:17:17.400Z,18.12
2019-05-01T10:19:50.236Z,17.81
2019-05-01T10:22:23.361Z,16.92
2019-05-01T10:24:55.798Z,16.70
2019-05-01T10:27:30.937Z,17.70
2019-05-01T10:30:17.425Z,18.03
2019-05-01T10:32:57.796Z,19.59
2019-05-01T10:35:51.768Z,19.25
2019-05-01T10:38:28.531Z,18.99
2019-05-01T10:41:04.216Z,20.81
2019-05-01T10:43:34.816Z,21.71
2019-05-01T10:46:07.047Z,22.07
2019-05-01T10:48:43.172Z,20.99
2019-05-01T10:51:15.183Z,20.56
2019-05-01T10:53:47.279Z,22.84
2019-05-01T10:56:21.291Z,23.35
2019-05-01T10:58:53.281Z,24.00
2019-05-01T11:01:35.143Z,24.96
2019-05-01T11:04:07.268Z,23.80
2019-05-01T11:06:39.562Z,24.50
2019-05-01T11:09:12.069Z,24.34
2019-05-01T11:11:44.175Z,24.59
2019-05-01T11:14:18.043Z,24.61
2019-05-01T11:16:50.006Z,24.42
2019-05-01T11:19:22.105Z,25.77
2019-05-01T11:21:55.593Z,23.65
2019-05-01T11:24:27.673Z,22.90
2019-05-01T11:27:02.121Z,23.70
2019-05-01T11:29:34.187Z,23.78
2019-05-01T11:32:25.130Z,24.44
2019-05-01T11:35:30.996Z,25.62
2019-05-01T11:38:25.171Z,25.43
2019-05-01T11:41:05.303Z,25.60
2019-05-01T11:43:37.348Z,28.00
2019-05-01T11:46:09.490Z,28.21
2019-05-01T11:48:44.337Z,28.31
2019-05-01T11:51:16.776Z,30.50
2019-05-01T11:53:48.814Z,31.33
2019-05-01T11:56:21.650Z,35.50
2019-05-01T11:58:53.638Z,37.55
2019-05-01T12:01:26.720Z,37.93
2019-05-01T12:03:59.001Z,37.14
2019-05-01T12:06:31.008Z,38.46
2019-05-01T12:09:04.703Z,38.15
2019-05-01T12:11:40.120Z,38.99
2019-05-01T12:14:12.092Z,37.93
2019-05-01T12:17:08.269Z,37.99
2019-05-01T12:19:40.341Z,37.16
2019-05-01T12:22:12.481Z,36.99
2019-05-01T12:24:44.531Z,37.09
2019-05-01T12:27:16.620Z,36.49
2019-05-01T12:29:50.136Z,36.13
2019-05-01T12:32:22.176Z,36.91
2019-05-01T12:34:54.676Z,34.70
2019-05-01T12:37:34.831Z,35.76
2019-05-01T12:40:08.906Z,34.39
2019-05-01T12:42:41.061Z,34.18
2019-05-01T12:45:13.909Z,34.39
2019-05-01T12:48:06.153Z,33.71
2019-05-01T12:50:38.196Z,33.24
2019-05-01T12:53:26.285Z,33.09
2019-05-01T12:56:17.144Z,32.58
2019-05-01T12:58:51.501Z,34.19
2019-05-01T13:01:23.680Z,33.46
2019-05-01T13:03:55.763Z,33.58
2019-05-01T13:06:27.784Z,33.70
2019-05-01T13:09:00.006Z,33.56
2019-05-01T13:11:32.076Z,32.95
2019-05-01T13:14:04.155Z,31.84
2019-05-01T13:16:36.247Z,32.54
2019-05-01T13:19:10.566Z,33.08
2019-05-01T13:21:42.567Z,32.00
2019-05-01T13:24:14.676Z,31.99
2019-05-01T13:26:52.204Z,31.46
2019-05-01T13:29:38.889Z,30.67
2019-05-01T13:32:29.965Z,29.91
2019-05-01T13:35:02.029Z,29.88
2019-05-01T13:37:35.293Z,30.63
2019-05-01T13:40:08.199Z,31.30
2019-05-01T13:42:42.107Z,32.03
2019-05-01T13:45:14.939Z,30.80
2019-05-01T13:47:54.388Z,31.40
2019-05-01T13:50:29.571Z,31.69
2019-05-01T13:53:15.563Z,31.09
2019-05-01T13:55:51.880Z,31.32
2019-05-01T13:58:24.029Z,31.66
2019-05-01T14:00:56.155Z,32.32
2019-05-01T14:03:28.197Z,31.45
2019-05-01T14:06:00.697Z,31.91
2019-05-01T14:08:34.449Z,32.33
2019-05-01T14:11:08.297Z,31.64
2019-05-01T14:13:40.315Z,31.64
2019-05-01T14:16:14.487Z,31.51
2019-05-01T14:18:47.334Z,31.77
2019-05-01T14:21:40.768Z,32.50
2019-05-01T14:24:46.122Z,31.84
2019-05-01T14:27:18.791Z,31.66
2019-05-01T14:29:52.683Z,31.47
2019-05-01T14:32:24.769Z,31.00
2019-05-01T14:34:56.763Z,32.01
2019-05-01T14:37:30.023Z,31.40
2019-05-01T14:40:02.615Z,31.40
2019-05-01T14:42:34.831Z,32.17
2019-05-01T14:45:10.246Z,32.14
2019-05-01T14:47:42.349Z,32.14
2019-05-01T14:50:14.820Z,32.21
2019-05-01T14:52:46.791Z,32.90
2019-05-01T14:55:18.848Z,32.43
2019-05-01T14:57:51.201Z,33.05
2019-05-01T15:00:24.333Z,33.53
2019-05-01T15:02:56.422Z,33.31
2019-05-01T15:05:30.270Z,33.31
2019-05-01T15:08:02.463Z,33.09
2019-05-01T15:10:34.482Z,33.59
2019-05-01T15:13:15.564Z,33.06
2019-05-01T15:15:58.608Z,32.86
2019-05-01T15:18:36.321Z,32.61
2019-05-01T15:21:16.033Z,33.97
2019-05-01T15:27:29.800Z,33.78
2019-05-01T15:30:22.258Z,34.88
2019-05-01T15:36:12.251Z,34.42
2019-05-01T15:38:44.347Z,33.20
2019-05-01T15:41:37.839Z,33.54
2019-05-01T15:44:20.363Z,32.98
2019-05-01T15:46:56.553Z,33.81
2019-05-01T15:49:28.486Z,33.66
2019-05-01T15:52:00.621Z,33.51
2019-05-01T15:54:32.609Z,33.43
2019-05-01T15:57:05.108Z,33.58
2019-05-01T15:59:37.158Z,34.17
2019-05-01T16:02:11.112Z,34.17
2019-05-01T16:04:43.142Z,34.35
2019-05-01T16:07:15.742Z,33.01
2019-05-01T16:09:47.728Z,33.85
2019-05-01T16:12:47.444Z,33.51
2019-05-01T16:15:27.458Z,34.32
2019-05-01T16:17:59.808Z,34.05
2019-05-01T16:20:31.790Z,33.64
2019-05-01T16:23:03.812Z,33.23
2019-05-01T16:25:35.797Z,33.74
2019-05-01T16:28:07.920Z,33.34
2019-05-01T16:30:40.143Z,32.89
2019-05-01T16:33:12.250Z,32.67
2019-05-01T16:35:44.315Z,32.99
2019-05-01T16:38:34.096Z,33.43
2019-05-01T16:41:08.369Z,32.93
2019-05-01T16:43:41.226Z,33.53
2019-05-01T16:46:13.321Z,33.93
2019-05-01T16:48:46.840Z,32.78
2019-05-01T16:51:18.957Z,32.80
2019-05-01T16:53:52.692Z,34.26
2019-05-01T16:56:24.851Z,33.25
2019-05-01T16:58:58.565Z,33.84
2019-05-01T17:01:57.538Z,33.96
2019-05-01T17:04:45.410Z,34.47
2019-05-01T17:07:29.649Z,33.26
2019-05-01T17:10:14.123Z,33.51
2019-05-01T17:12:51.178Z,33.30
2019-05-01T17:15:30.928Z,33.22
2019-05-01T17:18:03.042Z,34.23
2019-05-01T17:20:35.215Z,35.48
2019-05-01T17:23:07.518Z,34.38
2019-05-01T17:25:39.772Z,35.03
2019-05-01T17:28:12.088Z,33.74
2019-05-01T17:30:53.872Z,34.64
2019-05-01T17:33:26.767Z,34.23
2019-05-01T17:35:59.398Z,34.86
2019-05-01T17:38:33.237Z,35.30
2019-05-01T17:41:05.744Z,33.98
2019-05-01T17:43:37.879Z,34.59
2019-05-01T17:46:10.882Z,33.69
2019-05-01T17:48:43.874Z,33.11
2019-05-01T17:51:15.955Z,33.59
2019-05-01T17:53:48.125Z,33.28
2019-05-01T17:56:27.909Z,33.87
2019-05-01T17:58:56.059Z,34.85
2019-05-01T18:01:46.991Z,34.85
2019-05-01T18:04:33.557Z,34.34
2019-05-01T18:07:07.300Z,34.42
2019-05-01T18:09:39.567Z,34.47
2019-05-01T18:12:12.204Z,34.91
2019-05-01T18:14:44.477Z,35.62
2019-05-01T18:17:16.603Z,36.17
2019-05-01T18:19:48.841Z,37.05
2019-05-01T18:22:37.300Z,38.15
2019-05-01T18:25:19.102Z,38.88
2019-05-01T18:28:08.805Z,39.62
2019-05-01T18:30:42.948Z,39.92
2019-05-01T18:33:15.081Z,39.96
2019-05-01T18:35:50.660Z,39.87
2019-05-01T18:38:47.646Z,40.12
2019-05-01T18:41:28.230Z,39.25
2019-05-01T18:44:00.874Z,39.05
2019-05-01T18:46:33.362Z,39.23
2019-05-01T18:49:05.827Z,39.02
2019-05-01T18:51:43.903Z,39.28
2019-05-01T18:54:24.440Z,39.43
2019-05-01T18:56:57.057Z,39.25
2019-05-01T18:59:32.158Z,39.55
2019-05-01T19:02:04.595Z,40.01
2019-05-01T19:04:37.308Z,40.22
2019-05-01T19:07:10.858Z,40.12
2019-05-01T19:09:43.690Z,40.53
2019-05-01T19:12:17.285Z,40.98
2019-05-01T19:14:49.634Z,41.10
2019-05-01T19:17:22.029Z,41.23
2019-05-01T19:19:55.800Z,41.21
2019-05-01T19:22:31.367Z,41.31
2019-05-01T19:25:05.434Z,41.63
2019-05-01T19:27:37.963Z,41.53
2019-05-01T19:30:16.691Z,41.80
2019-05-01T19:32:49.884Z,42.04
2019-05-01T19:35:23.803Z,42.30
2019-05-01T19:37:57.456Z,42.67
2019-05-01T19:40:32.736Z,43.11
2019-05-01T19:43:05.021Z,43.39
2019-05-01T19:45:37.235Z,43.80
2019-05-01T19:48:09.847Z,43.66
2019-05-01T19:50:47.901Z,43.82
2019-05-01T19:53:18.411Z,43.55
2019-05-01T19:55:50.532Z,43.96
2019-05-01T19:58:22.867Z,44.98
2019-05-01T20:01:04.214Z,45.05
2019-05-01T20:03:36.853Z,44.43
2019-05-01T20:06:09.213Z,45.49
2019-05-01T20:08:43.485Z,45.15
2019-05-01T20:11:15.870Z,44.74
2019-05-01T20:13:48.402Z,44.62
2019-05-01T20:16:23.228Z,45.17
2019-05-01T20:18:58.082Z,45.64
2019-05-01T20:21:30.343Z,47.89
2019-05-01T20:24:09.170Z,49.10
2019-05-01T20:26:38.202Z,49.13
2019-05-01T20:29:10.426Z,49.19
2019-05-01T20:31:45.766Z,49.41
2019-05-01T20:34:18.799Z,51.27
2019-05-01T20:36:50.896Z,52.10
2019-05-01T20:39:24.679Z,52.65
2019-05-01T20:41:56.867Z,52.89
2019-05-01T20:44:29.051Z,52.75
2019-05-01T20:47:02.595Z,53.46
2019-05-01T20:49:41.438Z,53.94
2019-05-01T20:52:10.788Z,53.97
2019-05-01T20:54:45.641Z,54.18
2019-05-01T20:57:26.838Z,55.14
2019-05-01T20:59:59.539Z,55.34
2019-05-01T21:02:32.995Z,56.00
2019-05-01T21:05:33.241Z,56.76
2019-05-01T21:08:15.653Z,58.04
2019-05-01T21:10:51.975Z,58.04
2019-05-01T21:13:25.125Z,58.58
2019-05-01T21:16:01.986Z,59.29
2019-05-01T21:18:32.673Z,59.06
2019-05-01T21:21:05.040Z,59.03
2019-05-01T21:23:37.020Z,59.47
2019-05-01T21:26:09.308Z,60.02
2019-05-01T21:28:42.974Z,60.04
2019-05-01T21:31:15.281Z,61.14
2019-05-01T21:33:50.488Z,61.95
2019-05-01T21:36:23.938Z,62.58
2019-05-01T21:38:56.985Z,63.27
2019-05-01T21:41:28.954Z,63.43
2019-05-01T21:44:02.674Z,63.36
2019-05-01T21:46:40.275Z,63.58
2019-05-01T21:49:53.385Z,63.83
2019-05-01T21:52:27.020Z,64.34
2019-05-01T21:54:59.199Z,64.50
2019-05-01T21:57:37.871Z,64.68
2019-05-01T22:00:07.870Z,65.42
2019-05-01T22:02:46.270Z,65.91
2019-05-01T22:05:15.517Z,67.06
2019-05-01T22:07:47.454Z,67.78
2019-05-01T22:10:26.506Z,68.19
2019-05-01T22:12:58.229Z,68.28
2019-05-01T22:15:42.001Z,68.73
2019-05-01T22:18:35.639Z,69.28
2019-05-01T22:21:16.520Z,70.47
2019-05-01T22:24:07.709Z,70.82
2019-05-01T22:26:44.127Z,71.43
2019-05-01T22:29:17.939Z,71.67
2019-05-01T22:32:15.078Z,71.11
2019-05-01T22:34:50.780Z,71.10
2019-05-01T22:37:22.733Z,71.21
2019-05-01T22:40:02.538Z,71.26
2019-05-01T22:42:34.670Z,71.42
2019-05-01T22:45:09.243Z,71.68
2019-05-01T22:47:45.961Z,71.85
2019-05-01T22:50:20.312Z,71.85
2019-05-01T22:53:07.800Z,71.19
2019-05-01T22:55:38.403Z,70.07
2019-05-01T22:58:10.562Z,69.04
2019-05-01T23:00:51.034Z,68.72
2019-05-01T23:03:31.938Z,68.79
2019-05-01T23:08:36.648Z,71.19
2019-05-01T23:11:19.134Z,72.56
2019-05-01T23:13:43.624Z,73.21
2019-05-01T23:16:17.870Z,73.67
2019-05-01T23:18:53.198Z,74.04
2019-05-01T23:21:26.545Z,74.26
2019-05-01T23:24:01.875Z,74.50
2019-05-01T23:26:32.647Z,74.46
2019-05-01T23:29:05.119Z,74.31
2019-05-01T23:31:37.575Z,74.26
2019-05-01T23:34:11.342Z,74.57
2019-05-01T23:36:47.109Z,74.91
2019-05-01T23:39:19.125Z,75.33
2019-05-01T23:41:51.838Z,75.44
2019-05-01T23:44:23.766Z,75.43
2019-05-01T23:46:56.350Z,75.57
2019-05-01T23:49:28.450Z,75.77
2019-05-01T23:52:03.439Z,75.98
2019-05-01T23:54:34.245Z,76.12
2019-05-01T23:57:07.743Z,76.47
2019-05-01T23:59:41.343Z,76.54
